Time,TemperatureF,DewpointF,PressureIn,WindDirection,WindDirectionDegrees,WindSpeedMPH,WindSpeedGustMPH,Humidity,HourlyPrecipIn,Conditions,Clouds,dailyrainin,SoftwareType,DateUTC
2013-05-14 00:05:00,45.4,30.2,30.02,SSE,152,5.0,5.0,55,0.00,,,0.00,Wunderground v.1.15,2013-05-14 04:05:00,
2013-05-14 00:15:00,45.8,30.1,30.02,SSE,153,5.0,5.0,54,0.00,,,0.00,Wunderground v.1.15,2013-05-14 04:15:00,
2013-05-14 00:25:00,46.0,30.7,30.02,SSE,153,3.0,4.0,55,0.00,,,0.00,Wunderground v.1.15,2013-05-14 04:25:00,
2013-05-14 00:35:00,46.1,29.9,30.02,SSE,153,4.0,4.0,53,0.00,,,0.00,Wunderground v.1.15,2013-05-14 04:35:00,
2013-05-14 00:45:00,46.2,29.5,30.02,SSE,153,1.0,1.0,52,0.00,,,0.00,Wunderground v.1.15,2013-05-14 04:45:00,
2013-05-14 00:55:00,46.4,29.2,30.02,SSE,153,2.0,2.0,51,0.00,,,0.00,Wunderground v.1.15,2013-05-14 04:55:00,
2013-05-14 01:05:00,46.4,29.2,30.02,SSE,153,2.0,2.0,51,0.00,,,0.00,Wunderground v.1.15,2013-05-14 05:05:00,
2013-05-14 01:15:00,46.5,28.3,30.02,SSE,153,3.0,3.0,49,0.00,,,0.00,Wunderground v.1.15,2013-05-14 05:15:00,
2013-05-14 01:25:00,46.7,28.5,30.02,SSE,159,5.0,6.0,49,0.00,,,0.00,Wunderground v.1.15,2013-05-14 05:25:00,
2013-05-14 01:35:00,46.8,28.6,30.02,SSE,159,4.0,4.0,49,0.00,,,0.00,Wunderground v.1.15,2013-05-14 05:35:00,
2013-05-14 01:45:00,46.7,28.5,30.01,SE,138,5.0,7.0,49,0.00,,,0.00,Wunderground v.1.15,2013-05-14 05:45:00,
2013-05-14 01:55:00,47.0,28.3,29.97,SE,129,7.0,7.0,48,0.00,,,0.00,Wunderground v.1.15,2013-05-14 05:55:00,
2013-05-14 02:05:00,47.1,28.4,29.97,ESE,119,8.0,8.0,48,0.00,,,0.00,Wunderground v.1.15,2013-05-14 06:05:00,
2013-05-14 02:15:00,47.3,28.1,29.98,SE,126,7.0,7.0,47,0.00,,,0.00,Wunderground v.1.15,2013-05-14 06:15:00,
2013-05-14 02:25:00,47.1,28.9,29.97,SSE,148,6.0,6.0,49,0.00,,,0.00,Wunderground v.1.15,2013-05-14 06:25:00,
2013-05-14 02:35:00,47.4,28.2,29.97,SE,136,8.0,9.0,47,0.00,,,0.00,Wunderground v.1.15,2013-05-14 06:35:00,
2013-05-14 02:45:00,47.4,29.2,29.97,SE,146,8.0,9.0,49,0.00,,,0.00,Wunderground v.1.15,2013-05-14 06:45:00,
2013-05-14 02:55:00,47.4,28.2,29.96,SE,143,9.0,9.0,47,0.00,,,0.00,Wunderground v.1.15,2013-05-14 06:55:00,
2013-05-14 03:05:00,47.6,28.3,29.96,SE,136,8.0,8.0,47,0.00,,,0.00,Wunderground v.1.15,2013-05-14 07:05:00,
2013-05-14 03:15:00,47.7,28.4,29.97,ESE,122,6.0,6.0,47,0.00,,,0.00,Wunderground v.1.15,2013-05-14 07:15:00,
2013-05-14 03:25:00,47.6,28.9,29.97,ESE,117,4.0,5.0,48,0.00,,,0.00,Wunderground v.1.15,2013-05-14 07:25:00,
2013-05-14 03:35:00,47.1,29.9,29.97,ESE,118,4.0,5.0,51,0.00,,,0.00,Wunderground v.1.15,2013-05-14 07:35:00,
2013-05-14 03:45:00,47.3,29.6,29.96,SE,124,6.0,7.0,50,0.00,,,0.00,Wunderground v.1.15,2013-05-14 07:45:00,
2013-05-14 03:55:00,47.4,29.7,29.95,SE,126,6.0,11.0,50,0.00,,,0.00,Wunderground v.1.15,2013-05-14 07:55:00,
2013-05-14 04:05:00,47.9,29.1,29.95,SE,127,9.0,9.0,48,0.00,,,0.00,Wunderground v.1.15,2013-05-14 08:05:00,
2013-05-14 04:15:00,48.0,28.7,29.94,SE,140,9.0,9.0,47,0.00,,,0.00,Wunderground v.1.15,2013-05-14 08:15:00,
2013-05-14 04:25:00,48.3,28.5,29.93,SE,140,10.0,12.0,46,0.00,,,0.00,Wunderground v.1.15,2013-05-14 08:25:00,
2013-05-14 04:35:00,48.5,28.6,29.93,SE,127,9.0,9.0,46,0.00,,,0.00,Wunderground v.1.15,2013-05-14 08:35:00,
2013-05-14 04:45:00,48.3,28.5,29.92,SE,140,11.0,11.0,46,0.00,,,0.00,Wunderground v.1.15,2013-05-14 08:45:00,
2013-05-14 04:55:00,48.6,28.7,29.91,SE,133,10.0,10.0,46,0.00,,,0.00,Wunderground v.1.15,2013-05-14 08:55:00,
2013-05-14 05:05:00,48.6,28.7,29.91,SSE,163,11.0,11.0,46,0.00,,,0.00,Wunderground v.1.15,2013-05-14 09:05:00,
2013-05-14 05:15:00,48.6,28.7,29.90,SSE,150,11.0,11.0,46,0.00,,,0.00,Wunderground v.1.15,2013-05-14 09:15:00,
2013-05-14 05:25:00,48.8,29.4,29.90,SSE,149,11.0,13.0,47,0.00,,,0.00,Wunderground v.1.15,2013-05-14 09:25:00,
2013-05-14 05:35:00,48.6,29.8,29.90,SSE,153,11.0,11.0,48,0.00,,,0.00,Wunderground v.1.15,2013-05-14 09:35:00,
2013-05-14 05:45:00,48.3,30.0,29.89,SSE,157,9.0,12.0,49,0.00,,,0.00,Wunderground v.1.15,2013-05-14 09:45:00,
2013-05-14 05:55:00,48.0,29.7,29.89,SSE,158,9.0,9.0,49,0.00,,,0.00,Wunderground v.1.15,2013-05-14 09:55:00,
2013-05-14 06:05:00,48.0,29.7,29.89,SE,141,8.0,10.0,49,0.00,,,0.00,Wunderground v.1.15,2013-05-14 10:05:00,
2013-05-14 06:15:00,48.5,30.2,29.89,SSE,157,10.0,10.0,49,0.00,,,0.00,Wunderground v.1.15,2013-05-14 10:15:00,
2013-05-14 06:25:00,48.8,30.5,29.88,South,182,11.0,11.0,49,0.00,,,0.00,Wunderground v.1.15,2013-05-14 10:25:00,
2013-05-14 06:35:00,48.5,30.7,29.88,SSE,153,10.0,10.0,50,0.00,,,0.00,Wunderground v.1.15,2013-05-14 10:35:00,
2013-05-14 06:45:00,48.8,30.5,29.87,SSE,167,9.0,9.0,49,0.00,,,0.00,Wunderground v.1.15,2013-05-14 10:45:00,
2013-05-14 06:55:00,48.9,31.5,29.86,SSE,159,9.0,9.0,51,0.00,,,0.00,Wunderground v.1.15,2013-05-14 10:55:00,
2013-05-14 07:05:00,49.4,32.0,29.86,SSE,150,9.0,11.0,51,0.00,,,0.00,Wunderground v.1.15,2013-05-14 11:05:00,
2013-05-14 07:15:00,49.6,32.2,29.85,SSE,153,10.0,10.0,51,0.00,,,0.00,Wunderground v.1.15,2013-05-14 11:15:00,
2013-05-14 07:25:00,49.8,32.4,29.84,SSE,148,11.0,12.0,51,0.00,,,0.00,Wunderground v.1.15,2013-05-14 11:25:00,
2013-05-14 07:35:00,49.9,32.5,29.84,SE,140,11.0,11.0,51,0.00,,,0.00,Wunderground v.1.15,2013-05-14 11:35:00,
2013-05-14 07:45:00,50.1,33.1,29.84,SSE,157,11.0,11.0,52,0.00,,,0.00,Wunderground v.1.15,2013-05-14 11:45:00,
2013-05-14 07:55:00,50.2,33.2,29.83,SSE,158,11.0,11.0,52,0.00,,,0.00,Wunderground v.1.15,2013-05-14 11:55:00,
2013-05-14 08:05:00,51.4,34.3,29.83,SSE,159,11.0,11.0,52,0.00,,,0.00,Wunderground v.1.15,2013-05-14 12:05:00,
2013-05-14 08:15:00,52.5,34.9,29.82,SSE,155,12.0,12.0,51,0.00,,,0.00,Wunderground v.1.15,2013-05-14 12:15:00,
2013-05-14 08:25:00,53.1,34.9,29.81,South,169,12.0,12.0,50,0.00,,,0.00,Wunderground v.1.15,2013-05-14 12:25:00,
2013-05-14 08:35:00,52.8,35.2,29.81,SSE,161,11.0,11.0,51,0.00,,,0.00,Wunderground v.1.15,2013-05-14 12:35:00,
2013-05-14 08:45:00,54.2,36.5,29.80,South,178,9.0,9.0,51,0.00,,,0.00,Wunderground v.1.15,2013-05-14 12:45:00,
2013-05-14 08:55:00,55.1,36.3,29.80,South,188,11.0,11.0,49,0.00,,,0.00,Wunderground v.1.15,2013-05-14 12:55:00,
2013-05-14 09:05:00,56.5,37.0,29.80,SSE,165,11.0,11.0,48,0.00,,,0.00,Wunderground v.1.15,2013-05-14 13:05:00,
2013-05-14 09:15:00,56.6,38.7,29.79,South,174,9.0,9.0,51,0.00,,,0.00,Wunderground v.1.15,2013-05-14 13:15:00,
2013-05-14 09:25:00,57.8,39.3,29.79,South,189,8.0,11.0,50,0.00,,,0.00,Wunderground v.1.15,2013-05-14 13:25:00,
2013-05-14 09:35:00,60.1,40.3,29.79,SSW,204,10.0,11.0,48,0.00,,,0.00,Wunderground v.1.15,2013-05-14 13:35:00,
2013-05-14 09:45:00,60.7,40.3,29.77,SSW,194,10.0,10.0,47,0.00,,,0.00,Wunderground v.1.15,2013-05-14 13:45:00,
2013-05-14 09:55:00,61.2,40.2,29.76,South,169,11.0,11.0,46,0.00,,,0.00,Wunderground v.1.15,2013-05-14 13:55:00,
2013-05-14 10:05:00,62.0,41.0,29.76,SW,225,13.0,13.0,46,0.00,,,0.00,Wunderground v.1.15,2013-05-14 14:05:00,
2013-05-14 10:15:00,62.4,41.3,29.76,South,190,10.0,18.0,46,0.00,,,0.00,Wunderground v.1.15,2013-05-14 14:15:00,
2013-05-14 10:25:00,62.4,41.3,29.75,SW,225,12.0,13.0,46,0.00,,,0.00,Wunderground v.1.15,2013-05-14 14:25:00,
2013-05-14 10:35:00,62.9,42.9,29.75,SSW,207,11.0,11.0,48,0.00,,,0.00,Wunderground v.1.15,2013-05-14 14:35:00,
2013-05-14 10:45:00,64.3,43.1,29.74,SW,222,9.0,9.0,46,0.00,,,0.00,Wunderground v.1.15,2013-05-14 14:45:00,
2013-05-14 10:55:00,65.2,42.7,29.75,SW,234,9.0,13.0,44,0.00,,,0.00,Wunderground v.1.15,2013-05-14 14:55:00,
2013-05-14 11:05:00,66.0,44.0,29.75,SSW,207,10.0,10.0,45,0.00,,,0.00,Wunderground v.1.15,2013-05-14 15:05:00,
2013-05-14 11:15:00,66.6,45.7,29.74,SSW,193,9.0,11.0,47,0.00,,,0.00,Wunderground v.1.15,2013-05-14 15:15:00,
2013-05-14 11:25:00,67.1,46.2,29.73,SW,232,10.0,10.0,47,0.00,,,0.00,Wunderground v.1.15,2013-05-14 15:25:00,
2013-05-14 11:35:00,67.4,45.9,29.73,WSW,257,13.0,13.0,46,0.00,,,0.00,Wunderground v.1.15,2013-05-14 15:35:00,
2013-05-14 11:45:00,67.9,47.5,29.73,SW,233,14.0,14.0,48,0.00,,,0.00,Wunderground v.1.15,2013-05-14 15:45:00,
2013-05-14 11:55:00,68.3,47.3,29.74,SW,226,14.0,14.0,47,0.00,,,0.00,Wunderground v.1.15,2013-05-14 15:55:00,
2013-05-14 12:05:00,69.1,49.7,29.74,West,260,14.0,16.0,50,0.00,,,0.00,Wunderground v.1.15,2013-05-14 16:05:00,
2013-05-14 12:15:00,69.6,50.1,29.74,West,277,13.0,16.0,50,0.00,,,0.00,Wunderground v.1.15,2013-05-14 16:15:00,
2013-05-14 12:25:00,69.1,50.2,29.75,SSW,212,15.0,15.0,51,0.00,,,0.00,Wunderground v.1.15,2013-05-14 16:25:00,
2013-05-14 12:35:00,69.3,50.4,29.75,WSW,244,13.0,16.0,51,0.00,,,0.00,Wunderground v.1.15,2013-05-14 16:35:00,
2013-05-14 12:45:00,69.6,52.2,29.76,SW,234,13.0,13.0,54,0.00,,,0.00,Wunderground v.1.15,2013-05-14 16:45:00,
2013-05-14 12:55:00,69.6,50.1,29.75,WSW,248,13.0,17.0,50,0.00,,,0.00,Wunderground v.1.15,2013-05-14 16:55:00,
2013-05-14 13:05:00,68.9,50.5,29.75,West,271,13.0,13.0,52,0.00,,,0.00,Wunderground v.1.15,2013-05-14 17:05:00,
2013-05-14 13:15:00,69.1,51.8,29.75,WNW,284,13.0,14.0,54,0.00,,,0.00,Wunderground v.1.15,2013-05-14 17:15:00,
2013-05-14 13:25:00,68.9,51.1,29.74,WSW,255,14.0,14.0,53,0.00,,,0.00,Wunderground v.1.15,2013-05-14 17:25:00,
2013-05-14 13:35:00,69.3,50.9,29.74,WSW,237,11.0,13.0,52,0.00,,,0.00,Wunderground v.1.15,2013-05-14 17:35:00,
2013-05-14 13:45:00,69.3,50.4,29.74,WSW,251,13.0,17.0,51,0.00,,,0.00,Wunderground v.1.15,2013-05-14 17:45:00,
2013-05-14 13:55:00,69.6,51.7,29.74,WSW,242,13.0,16.0,53,0.00,,,0.00,Wunderground v.1.15,2013-05-14 17:55:00,
2013-05-14 14:05:00,70.1,53.2,29.74,WSW,244,11.0,11.0,55,0.00,,,0.00,Wunderground v.1.15,2013-05-14 18:05:00,
2013-05-14 14:15:00,69.9,52.5,29.74,WSW,250,11.0,12.0,54,0.00,,,0.00,Wunderground v.1.15,2013-05-14 18:15:00,
2013-05-14 14:25:00,70.6,51.1,29.72,West,262,11.0,16.0,50,0.00,,,0.00,Wunderground v.1.15,2013-05-14 18:25:00,
2013-05-14 14:35:00,70.4,51.9,29.72,West,264,11.0,11.0,52,0.00,,,0.00,Wunderground v.1.15,2013-05-14 18:35:00,
2013-05-14 14:45:00,70.6,51.6,29.72,WSW,252,11.0,11.0,51,0.00,,,0.00,Wunderground v.1.15,2013-05-14 18:45:00,
2013-05-14 14:55:00,70.9,52.4,29.73,WSW,256,11.0,11.0,52,0.00,,,0.00,Wunderground v.1.15,2013-05-14 18:55:00,
2013-05-14 15:05:00,71.3,53.3,29.73,WSW,249,11.0,11.0,53,0.00,,,0.00,Wunderground v.1.15,2013-05-14 19:05:00,
2013-05-14 15:15:00,71.1,52.0,29.73,West,262,11.0,17.0,51,0.00,,,0.00,Wunderground v.1.15,2013-05-14 19:15:00,
2013-05-14 15:25:00,71.3,54.3,29.72,WSW,251,10.0,11.0,55,0.00,,,0.00,Wunderground v.1.15,2013-05-14 19:25:00,
2013-05-14 15:35:00,71.5,51.9,29.72,WSW,257,9.0,9.0,50,0.00,,,0.00,Wunderground v.1.15,2013-05-14 19:35:00,
2013-05-14 15:45:00,71.5,52.9,29.72,West,267,10.0,10.0,52,0.00,,,0.00,Wunderground v.1.15,2013-05-14 19:45:00,
2013-05-14 15:55:00,71.1,52.0,29.72,WSW,254,9.0,12.0,51,0.00,,,0.00,Wunderground v.1.15,2013-05-14 19:55:00,
2013-05-14 16:05:00,70.8,52.3,29.72,WSW,250,9.0,10.0,52,0.00,,,0.00,Wunderground v.1.15,2013-05-14 20:05:00,
2013-05-14 16:15:00,70.9,52.9,29.73,West,265,10.0,10.0,53,0.00,,,0.00,Wunderground v.1.15,2013-05-14 20:15:00,
2013-05-14 16:25:00,70.6,52.1,29.73,WSW,247,8.0,8.0,52,0.00,,,0.00,Wunderground v.1.15,2013-05-14 20:25:00,
2013-05-14 16:35:00,69.8,51.9,29.73,West,262,5.0,5.0,53,0.00,,,0.00,Wunderground v.1.15,2013-05-14 20:35:00,
2013-05-14 16:45:00,69.4,51.0,29.73,West,269,6.0,6.0,52,0.00,,,0.00,Wunderground v.1.15,2013-05-14 20:45:00,
2013-05-14 16:55:00,69.6,51.2,29.75,West,271,6.0,6.0,52,0.00,,,0.00,Wunderground v.1.15,2013-05-14 20:55:00,
2013-05-14 17:05:00,68.9,51.6,29.75,West,260,6.0,8.0,54,0.00,,,0.00,Wunderground v.1.15,2013-05-14 21:05:00,
2013-05-14 17:15:00,67.9,51.1,29.72,West,260,6.0,6.0,55,0.00,,,0.00,Wunderground v.1.15,2013-05-14 21:15:00,
2013-05-14 17:25:00,67.8,51.5,29.72,West,259,2.0,9.0,56,0.00,,,0.00,Wunderground v.1.15,2013-05-14 21:25:00,
2013-05-14 17:35:00,67.6,51.3,29.72,SW,236,5.0,6.0,56,0.00,,,0.00,Wunderground v.1.15,2013-05-14 21:35:00,
2013-05-14 17:45:00,67.6,52.3,29.71,West,259,4.0,4.0,58,0.00,,,0.00,Wunderground v.1.15,2013-05-14 21:45:00,
2013-05-14 17:55:00,68.8,52.0,29.70,West,259,2.0,7.0,55,0.00,,,0.00,Wunderground v.1.15,2013-05-14 21:55:00,
2013-05-14 18:05:00,68.8,52.9,29.70,WSW,248,4.0,5.0,57,0.00,,,0.00,Wunderground v.1.15,2013-05-14 22:05:00,
2013-05-14 18:15:00,68.6,52.3,29.69,WSW,248,4.0,4.0,56,0.00,,,0.00,Wunderground v.1.15,2013-05-14 22:15:00,
2013-05-14 18:25:00,67.8,51.0,29.69,WSW,248,3.0,4.0,55,0.00,,,0.00,Wunderground v.1.15,2013-05-14 22:25:00,
2013-05-14 18:35:00,67.6,51.3,29.69,WSW,248,3.0,3.0,56,0.00,,,0.00,Wunderground v.1.15,2013-05-14 22:35:00,
2013-05-14 18:45:00,67.6,51.8,29.68,WSW,248,1.0,1.0,57,0.00,,,0.00,Wunderground v.1.15,2013-05-14 22:45:00,
2013-05-14 18:55:00,67.3,52.5,29.67,WSW,247,2.0,4.0,59,0.00,,,0.00,Wunderground v.1.15,2013-05-14 22:55:00,
2013-05-14 19:05:00,66.9,53.5,29.67,SSW,208,3.0,4.0,62,0.00,,,0.00,Wunderground v.1.15,2013-05-14 23:05:00,
2013-05-14 19:15:00,66.6,53.2,29.67,SSW,200,3.0,3.0,62,0.00,,,0.00,Wunderground v.1.15,2013-05-14 23:15:00,
2013-05-14 19:25:00,66.9,53.9,29.68,SSW,200,0.0,0.0,63,0.00,,,0.00,Wunderground v.1.15,2013-05-14 23:25:00,
2013-05-14 19:35:00,67.3,55.1,29.68,SSW,200,0.0,0.0,65,0.00,,,0.00,Wunderground v.1.15,2013-05-14 23:35:00,
2013-05-14 19:45:00,67.1,54.5,29.67,SSW,200,0.0,0.0,64,0.00,,,0.00,Wunderground v.1.15,2013-05-14 23:45:00,
2013-05-14 19:55:00,67.1,54.5,29.68,SSW,200,0.0,0.0,64,0.00,,,0.00,Wunderground v.1.15,2013-05-14 23:55:00,
2013-05-14 20:05:00,66.3,54.6,29.68,SSW,200,0.0,0.0,66,0.00,,,0.00,Wunderground v.1.15,2013-05-15 00:05:00,
2013-05-14 20:15:00,65.2,56.3,29.67,SSW,200,0.0,0.0,73,0.00,,,0.00,Wunderground v.1.15,2013-05-15 00:15:00,
2013-05-14 20:25:00,64.8,55.9,29.66,South,187,2.0,2.0,73,0.00,,,0.00,Wunderground v.1.15,2013-05-15 00:25:00,
2013-05-14 20:35:00,64.8,55.9,29.66,South,187,1.0,1.0,73,0.00,,,0.00,Wunderground v.1.15,2013-05-15 00:35:00,
2013-05-14 20:45:00,64.0,55.5,29.64,South,187,3.0,3.0,74,0.00,,,0.00,Wunderground v.1.15,2013-05-15 00:45:00,
2013-05-14 20:55:00,64.2,53.8,29.64,South,187,3.0,3.0,69,0.00,,,0.00,Wunderground v.1.15,2013-05-15 00:55:00,
2013-05-14 21:05:00,63.7,53.7,29.64,South,187,3.0,4.0,70,0.00,,,0.00,Wunderground v.1.15,2013-05-15 01:05:00,
2013-05-14 21:15:00,63.7,53.7,29.63,South,171,5.0,6.0,70,0.00,,,0.00,Wunderground v.1.15,2013-05-15 01:15:00,
2013-05-14 21:25:00,64.5,53.3,29.63,SSE,157,5.0,5.0,67,0.00,,,0.00,Wunderground v.1.15,2013-05-15 01:25:00,
2013-05-14 21:35:00,64.2,53.4,29.63,SSE,157,4.0,5.0,68,0.00,,,0.00,Wunderground v.1.15,2013-05-15 01:35:00,
2013-05-14 21:45:00,63.7,53.3,29.63,SSE,157,3.0,5.0,69,0.00,,,0.00,Wunderground v.1.15,2013-05-15 01:45:00,
2013-05-14 21:55:00,63.4,53.0,29.62,SSE,157,5.0,6.0,69,0.00,,,0.00,Wunderground v.1.15,2013-05-15 01:55:00,
2013-05-14 22:05:00,63.5,53.1,29.62,SSE,158,4.0,4.0,69,0.00,,,0.00,Wunderground v.1.15,2013-05-15 02:05:00,
2013-05-14 22:15:00,63.9,52.7,29.62,SSE,161,3.0,3.0,67,0.00,,,0.00,Wunderground v.1.15,2013-05-15 02:15:00,
2013-05-14 22:25:00,63.7,52.9,29.63,SSE,161,1.0,1.0,68,0.00,,,0.00,Wunderground v.1.15,2013-05-15 02:25:00,
2013-05-14 22:35:00,63.9,52.7,29.63,SSE,161,1.0,1.0,67,0.00,,,0.00,Wunderground v.1.15,2013-05-15 02:35:00,
2013-05-14 22:45:00,63.2,52.5,29.63,SSE,161,0.0,0.0,68,0.00,,,0.00,Wunderground v.1.15,2013-05-15 02:45:00,
2013-05-14 22:55:00,62.4,52.5,29.62,SSE,161,0.0,0.0,70,0.00,,,0.00,Wunderground v.1.15,2013-05-15 02:55:00,
2013-05-14 23:05:00,62.0,52.5,29.62,SSE,161,0.0,0.0,71,0.00,,,0.00,Wunderground v.1.15,2013-05-15 03:05:00,
2013-05-14 23:15:00,62.1,52.6,29.61,SSE,161,2.0,2.0,71,0.00,,,0.00,Wunderground v.1.15,2013-05-15 03:15:00,
2013-05-14 23:25:00,62.3,53.5,29.60,SSE,161,3.0,3.0,73,0.00,,,0.00,Wunderground v.1.15,2013-05-15 03:25:00,
2013-05-14 23:35:00,63.7,53.3,29.60,SSE,161,3.0,5.0,69,0.00,,,0.00,Wunderground v.1.15,2013-05-15 03:35:00,
2013-05-14 23:45:00,65.3,53.2,29.59,SSE,157,7.0,7.0,65,0.00,,,0.00,Wunderground v.1.15,2013-05-15 03:45:00,
2013-05-14 23:55:00,66.3,53.3,29.57,SE,146,9.0,9.0,63,0.00,,,0.00,Wunderground v.1.15,2013-05-15 03:55:00,